createdAt,value
2023-05-14T00:01:19.008Z,6.16
2023-05-14T00:04:20.889Z,6.15
2023-05-14T00:07:22.719Z,6.19
2023-05-14T00:10:24.857Z,5.98
2023-05-14T00:13:26.955Z,5.97
2023-05-14T00:16:28.841Z,6.10
2023-05-14T00:19:30.724Z,6.07
2023-05-14T00:22:33.348Z,6.04
2023-05-14T00:25:35.778Z,6.06
2023-05-14T00:28:37.650Z,6.07
2023-05-14T00:31:39.476Z,6.15
2023-05-14T00:34:41.498Z,6.18
2023-05-14T00:37:43.276Z,6.10
2023-05-14T00:40:51.200Z,6.09
2023-05-14T00:43:53.029Z,6.02
2023-05-14T00:46:55.034Z,5.96
2023-05-14T00:49:57.064Z,6.10
2023-05-14T00:52:59.050Z,6.05
2023-05-14T00:56:00.936Z,5.99
2023-05-14T00:59:02.789Z,6.20
2023-05-14T01:02:04.817Z,6.14
2023-05-14T01:05:08.093Z,6.14
2023-05-14T01:08:24.300Z,6.04
2023-05-14T01:11:29.227Z,6.03
2023-05-14T01:14:48.981Z,6.00
2023-05-14T01:18:02.221Z,6.19
2023-05-14T01:21:04.290Z,6.04
2023-05-14T01:24:06.852Z,5.84
2023-05-14T01:27:17.744Z,6.12
2023-05-14T01:30:22.192Z,6.01
2023-05-14T01:33:27.626Z,5.94
2023-05-14T01:36:30.164Z,5.96
2023-05-14T01:39:32.985Z,5.77
2023-05-14T01:42:35.479Z,5.74
2023-05-14T01:45:37.901Z,5.92
2023-05-14T01:48:41.428Z,5.68
2023-05-14T01:51:43.320Z,5.65
2023-05-14T01:54:45.110Z,5.69
2023-05-14T01:57:46.944Z,5.67
2023-05-14T02:00:49.258Z,5.64
2023-05-14T02:03:51.323Z,5.50
2023-05-14T02:06:53.219Z,5.62
2023-05-14T02:09:55.011Z,5.52
2023-05-14T02:12:56.807Z,5.46
2023-05-14T02:15:58.815Z,5.55
2023-05-14T02:19:00.779Z,5.43
2023-05-14T02:22:02.659Z,5.47
2023-05-14T02:25:04.711Z,5.44
2023-05-14T02:28:06.574Z,5.49
2023-05-14T02:31:08.467Z,5.62
2023-05-14T02:34:10.497Z,5.53
2023-05-14T02:37:12.354Z,5.55
2023-05-14T02:40:14.644Z,5.70
2023-05-14T02:43:16.506Z,5.52
2023-05-14T02:46:18.478Z,5.60
2023-05-14T02:49:20.377Z,5.80
2023-05-14T02:52:22.304Z,6.01
2023-05-14T02:55:26.455Z,6.18
2023-05-14T02:58:28.594Z,6.37
2023-05-14T03:01:30.721Z,6.44
2023-05-14T03:04:32.882Z,6.49
2023-05-14T03:07:34.630Z,6.51
2023-05-14T03:10:37.114Z,6.54
2023-05-14T03:13:38.948Z,6.53
2023-05-14T03:16:42.381Z,6.48
2023-05-14T03:19:44.429Z,6.36
2023-05-14T03:22:46.401Z,6.46
2023-05-14T03:25:48.300Z,6.44
2023-05-14T03:28:50.895Z,6.48
2023-05-14T03:31:53.480Z,6.46
2023-05-14T03:34:55.723Z,6.52
2023-05-14T03:37:59.263Z,6.44
2023-05-14T03:41:01.119Z,6.49
2023-05-14T03:44:02.995Z,6.60
2023-05-14T03:47:05.290Z,6.63
2023-05-14T03:50:08.000Z,6.73
2023-05-14T03:53:09.960Z,6.88
2023-05-14T03:56:11.760Z,6.94
2023-05-14T03:59:13.547Z,7.06
2023-05-14T04:02:15.655Z,7.00
2023-05-14T04:05:17.460Z,7.43
2023-05-14T04:08:19.344Z,7.58
2023-05-14T04:11:21.650Z,7.89
2023-05-14T04:14:23.532Z,8.02
2023-05-14T04:17:25.963Z,8.20
2023-05-14T04:20:28.058Z,8.86
2023-05-14T04:23:31.809Z,9.79
2023-05-14T04:26:33.604Z,10.47
2023-05-14T04:29:35.379Z,10.87
2023-05-14T04:32:37.969Z,11.25
2023-05-14T04:35:39.898Z,11.83
2023-05-14T04:38:42.153Z,12.41
2023-05-14T04:41:43.990Z,12.77
2023-05-14T04:44:46.392Z,13.12
2023-05-14T04:47:48.488Z,13.74
2023-05-14T04:50:50.344Z,13.65
2023-05-14T04:53:52.277Z,12.42
2023-05-14T04:56:55.912Z,12.45
2023-05-14T04:59:57.729Z,12.70
2023-05-14T05:02:59.643Z,12.25
2023-05-14T05:06:01.697Z,13.29
2023-05-14T05:09:03.702Z,14.13
2023-05-14T05:12:06.404Z,14.01
2023-05-14T05:15:11.144Z,13.14
2023-05-14T05:18:13.234Z,12.80
2023-05-14T05:21:15.049Z,12.90
2023-05-14T05:24:16.949Z,12.45
2023-05-14T05:27:18.822Z,12.36
2023-05-14T05:30:20.784Z,12.18
2023-05-14T05:33:22.997Z,11.72
2023-05-14T05:36:24.903Z,12.28
2023-05-14T05:39:26.690Z,12.61
2023-05-14T05:42:28.737Z,12.84
2023-05-14T05:45:30.671Z,12.46
2023-05-14T05:48:32.579Z,13.23
2023-05-14T05:51:34.482Z,12.76
2023-05-14T05:54:36.433Z,13.24
2023-05-14T05:57:38.295Z,13.29
2023-05-14T06:00:40.082Z,13.28
2023-05-14T06:03:41.949Z,13.36
2023-05-14T06:06:43.783Z,12.95
2023-05-14T06:09:45.708Z,12.61
2023-05-14T06:12:47.601Z,12.84
2023-05-14T06:15:49.415Z,12.80
2023-05-14T06:18:52.782Z,12.67
2023-05-14T06:21:54.737Z,12.57
2023-05-14T06:24:56.613Z,13.53
2023-05-14T06:27:58.574Z,14.16
2023-05-14T06:31:00.478Z,14.63
2023-05-14T06:34:02.335Z,14.43
2023-05-14T06:37:04.347Z,14.89
2023-05-14T06:40:06.819Z,14.96
2023-05-14T06:43:08.703Z,14.68
2023-05-14T06:46:10.544Z,14.77
2023-05-14T06:49:12.535Z,14.88
2023-05-14T06:52:14.384Z,15.08
2023-05-14T06:55:16.244Z,15.05
2023-05-14T06:58:18.154Z,14.52
2023-05-14T07:01:20.153Z,14.67
2023-05-14T07:04:22.079Z,14.34
2023-05-14T07:07:23.983Z,14.03
2023-05-14T07:10:26.433Z,14.51
2023-05-14T07:13:28.896Z,14.52
2023-05-14T07:16:31.152Z,14.49
2023-05-14T07:19:33.118Z,13.94
2023-05-14T07:22:35.011Z,14.36
2023-05-14T07:25:36.914Z,13.90
2023-05-14T07:28:38.765Z,14.55
2023-05-14T07:31:40.792Z,14.06
2023-05-14T07:34:42.881Z,14.79
2023-05-14T07:37:44.838Z,14.63
2023-05-14T07:40:47.206Z,14.72
2023-05-14T07:43:49.068Z,15.09
2023-05-14T07:46:51.076Z,14.52
2023-05-14T07:49:56.415Z,14.86
2023-05-14T07:52:58.256Z,14.94
2023-05-14T07:56:00.596Z,14.55
2023-05-14T07:59:02.773Z,14.65
2023-05-14T08:02:04.978Z,14.64
2023-05-14T08:05:07.357Z,14.30
2023-05-14T08:08:09.144Z,13.82
2023-05-14T08:11:11.128Z,13.87
2023-05-14T08:14:12.976Z,13.94
2023-05-14T08:17:15.053Z,14.32
2023-05-14T08:20:17.069Z,14.60
2023-05-14T08:23:19.026Z,14.59
2023-05-14T08:26:21.969Z,14.52
2023-05-14T08:29:23.806Z,14.84
2023-05-14T08:32:25.711Z,15.14
2023-05-14T08:35:27.593Z,15.27
2023-05-14T08:38:29.409Z,15.18
2023-05-14T08:41:32.126Z,14.99
2023-05-14T08:44:43.915Z,15.56
2023-05-14T08:47:51.616Z,15.78
2023-05-14T08:50:53.665Z,16.14
2023-05-14T08:53:56.107Z,16.10
2023-05-14T08:56:58.954Z,16.65
2023-05-14T09:00:01.667Z,16.33
2023-05-14T09:03:05.547Z,16.39
2023-05-14T09:06:08.207Z,16.73
2023-05-14T09:09:11.408Z,16.64
2023-05-14T09:12:13.356Z,16.95
2023-05-14T09:15:15.441Z,17.18
2023-05-14T09:18:17.568Z,17.80
2023-05-14T09:21:20.156Z,18.55
2023-05-14T09:24:24.472Z,19.44
2023-05-14T09:27:29.565Z,19.73
2023-05-14T09:30:31.648Z,19.90
2023-05-14T09:33:33.521Z,20.08
2023-05-14T09:36:35.579Z,20.58
2023-05-14T09:39:38.676Z,20.23
2023-05-14T09:42:41.550Z,20.39
2023-05-14T09:45:43.557Z,19.68
2023-05-14T09:48:46.510Z,20.77
2023-05-14T09:51:49.201Z,20.34
2023-05-14T09:54:52.626Z,21.50
2023-05-14T09:57:54.535Z,21.98
2023-05-14T10:00:57.738Z,22.16
2023-05-14T10:04:00.140Z,20.80
2023-05-14T10:07:03.059Z,20.06
2023-05-14T10:10:08.735Z,19.29
2023-05-14T10:13:15.656Z,17.95
2023-05-14T10:16:24.351Z,17.70
2023-05-14T10:19:26.834Z,17.23
2023-05-14T10:22:34.053Z,17.12
2023-05-14T10:25:36.942Z,17.41
2023-05-14T10:28:39.138Z,17.81
2023-05-14T10:31:51.630Z,17.62
2023-05-14T10:34:54.032Z,17.73
2023-05-14T10:37:56.891Z,17.23
2023-05-14T10:41:04.292Z,17.52
2023-05-14T10:44:10.177Z,17.52
2023-05-14T10:47:12.071Z,16.74
2023-05-14T10:50:17.645Z,16.81
2023-05-14T10:53:20.395Z,17.02
2023-05-14T10:56:22.376Z,16.77
2023-05-14T10:59:27.684Z,16.35
2023-05-14T11:02:32.670Z,16.81
2023-05-14T11:05:37.614Z,16.64
2023-05-14T11:08:39.916Z,17.10
2023-05-14T11:11:42.029Z,16.87
2023-05-14T11:14:43.850Z,16.55
2023-05-14T11:17:47.038Z,16.50
2023-05-14T11:20:49.028Z,16.41
2023-05-14T11:23:51.016Z,16.56
2023-05-14T11:26:55.730Z,16.07
2023-05-14T11:29:58.180Z,16.57
2023-05-14T11:33:02.045Z,16.45
2023-05-14T11:36:04.555Z,16.45
2023-05-14T11:39:07.946Z,15.99
2023-05-14T11:42:12.561Z,15.69
2023-05-14T11:45:25.984Z,15.51
2023-05-14T11:48:27.829Z,16.07
2023-05-14T11:51:29.681Z,15.79
2023-05-14T11:54:33.180Z,16.05
2023-05-14T11:57:35.413Z,15.72
2023-05-14T12:00:38.447Z,15.46
2023-05-14T12:03:40.750Z,15.95
2023-05-14T12:06:42.742Z,15.70
2023-05-14T12:09:50.116Z,15.81
2023-05-14T12:12:52.047Z,15.95
2023-05-14T12:15:56.603Z,15.96
2023-05-14T12:19:01.902Z,16.25
2023-05-14T12:22:03.784Z,16.05
2023-05-14T12:25:12.556Z,16.14
2023-05-14T12:28:15.928Z,16.00
2023-05-14T12:31:17.812Z,15.74
2023-05-14T12:34:19.629Z,16.02
2023-05-14T12:37:21.556Z,15.86
2023-05-14T12:40:26.568Z,15.95
2023-05-14T12:43:31.567Z,15.72
2023-05-14T12:46:34.330Z,16.21
2023-05-14T12:49:36.374Z,16.17
2023-05-14T12:52:39.975Z,16.06
2023-05-14T12:55:42.285Z,16.04
2023-05-14T12:58:44.137Z,16.39
2023-05-14T13:01:46.059Z,15.90
2023-05-14T13:04:48.054Z,15.96
2023-05-14T13:07:50.362Z,15.86
2023-05-14T13:10:53.592Z,15.69
2023-05-14T13:13:55.841Z,15.45
2023-05-14T13:16:59.474Z,15.13
2023-05-14T13:20:01.751Z,15.24
2023-05-14T13:23:03.658Z,14.97
2023-05-14T13:26:05.835Z,15.16
2023-05-14T13:29:07.721Z,14.96
2023-05-14T13:33:06.831Z,15.18
2023-05-14T13:36:26.037Z,14.97
2023-05-14T13:39:30.613Z,15.11
2023-05-14T13:42:32.651Z,15.28
2023-05-14T13:45:35.005Z,15.23
2023-05-14T13:48:37.550Z,15.01
2023-05-14T13:51:39.616Z,15.23
2023-05-14T13:54:41.583Z,14.97
2023-05-14T13:57:43.623Z,14.93
2023-05-14T14:00:50.553Z,14.78
2023-05-14T14:03:52.990Z,14.54
2023-05-14T14:06:56.106Z,14.69
2023-05-14T14:10:04.759Z,14.57
2023-05-14T14:13:06.949Z,14.41
2023-05-14T14:16:27.979Z,14.43
2023-05-14T14:19:31.799Z,14.32
2023-05-14T14:22:33.864Z,14.05
2023-05-14T14:25:35.884Z,13.83
2023-05-14T14:28:55.058Z,13.45
2023-05-14T14:31:57.504Z,13.49
2023-05-14T14:35:02.023Z,13.39
2023-05-14T14:38:06.431Z,13.39
2023-05-14T14:41:10.569Z,13.42
2023-05-14T14:44:12.934Z,13.37
2023-05-14T14:47:17.082Z,13.31
2023-05-14T14:50:19.186Z,13.25
